HAZ705 ZSPD-RCTP
Flight info
| Callsign | HAZ705 |
|---|---|
| Flight time | 1h 24m |
| Altitude | 32000 |
| Route | MIG92D MIGOL B591 KASKA/N0473F320 B591 BAKER BAKER1A |
| Aircraft | A339/H-SADE1E2E3GHIJ3J5M1P2RWXY/LB2D1 |
Departure
| Time | 2026-04-30 10:42 |
|---|---|
| Airport | Shanghai Pudong International Airport (ZSPD) |
Arrival
| Time | 2026-04-30 12:06 |
|---|---|
| Airport | Taiwan Taoyuan International Airport (RCTP) |
| Time | Latitude | Longitude | Altitude | Speed | Heading |
|---|---|---|---|---|---|
| 2026-04-30 09:51 | 31.15331 | 121.79579 | 31 ft | 0 kts | 74° |
| 2026-04-30 10:24 | 31.15330 | 121.79573 | 31 ft | 2 kts | 75° |
| 2026-04-30 10:24 | 31.15326 | 121.79557 | 30 ft | 1 kts | 74° |
| 2026-04-30 10:24 | 31.15322 | 121.79541 | 29 ft | 2 kts | 74° |
| 2026-04-30 10:24 | 31.15319 | 121.79526 | 28 ft | 2 kts | 76° |
| 2026-04-30 10:25 | 31.15316 | 121.79508 | 28 ft | 2 kts | 92° |
| 2026-04-30 10:25 | 31.15319 | 121.79491 | 27 ft | 2 kts | 105° |
| 2026-04-30 10:25 | 31.15324 | 121.79475 | 27 ft | 2 kts | 118° |
| 2026-04-30 10:25 | 31.15332 | 121.79461 | 27 ft | 2 kts | 131° |
| 2026-04-30 10:26 | 31.15342 | 121.79449 | 27 ft | 2 kts | 144° |
| 2026-04-30 10:26 | 31.15356 | 121.79440 | 27 ft | 1 kts | 158° |
| 2026-04-30 10:26 | 31.15361 | 121.79437 | 26 ft | 1 kts | 161° |
| 2026-04-30 10:26 | 31.15363 | 121.79437 | 26 ft | 0 kts | 161° |
| 2026-04-30 10:29 | 31.15357 | 121.79439 | 26 ft | 3 kts | 159° |
| 2026-04-30 10:29 | 31.15318 | 121.79456 | 27 ft | 8 kts | 160° |
| 2026-04-30 10:30 | 31.15247 | 121.79485 | 29 ft | 12 kts | 161° |
| 2026-04-30 10:30 | 31.15158 | 121.79520 | 31 ft | 13 kts | 162° |
| 2026-04-30 10:30 | 31.15069 | 121.79554 | 34 ft | 13 kts | 161° |
| 2026-04-30 10:30 | 31.14970 | 121.79593 | 37 ft | 16 kts | 161° |
| 2026-04-30 10:31 | 31.14859 | 121.79636 | 39 ft | 16 kts | 161° |
| 2026-04-30 10:31 | 31.14744 | 121.79682 | 40 ft | 18 kts | 161° |
| 2026-04-30 10:31 | 31.14619 | 121.79734 | 40 ft | 20 kts | 162° |
| 2026-04-30 10:31 | 31.14475 | 121.79786 | 38 ft | 22 kts | 165° |
| 2026-04-30 10:32 | 31.14324 | 121.79836 | 36 ft | 22 kts | 162° |
| 2026-04-30 10:32 | 31.14207 | 121.79890 | 33 ft | 12 kts | 133° |
| 2026-04-30 10:32 | 31.14207 | 121.79983 | 33 ft | 12 kts | 72° |
| 2026-04-30 10:32 | 31.14235 | 121.80087 | 33 ft | 14 kts | 72° |
| 2026-04-30 10:33 | 31.14269 | 121.80206 | 33 ft | 16 kts | 71° |
| 2026-04-30 10:33 | 31.14308 | 121.80341 | 32 ft | 18 kts | 72° |
| 2026-04-30 10:33 | 31.14348 | 121.80489 | 31 ft | 20 kts | 72° |
| 2026-04-30 10:33 | 31.14395 | 121.80653 | 30 ft | 21 kts | 71° |
| 2026-04-30 10:34 | 31.14440 | 121.80818 | 30 ft | 20 kts | 72° |
| 2026-04-30 10:34 | 31.14485 | 121.80978 | 30 ft | 19 kts | 71° |
| 2026-04-30 10:34 | 31.14527 | 121.81127 | 30 ft | 19 kts | 72° |
| 2026-04-30 10:34 | 31.14566 | 121.81272 | 30 ft | 18 kts | 72° |
| 2026-04-30 10:35 | 31.14589 | 121.81351 | 30 ft | 4 kts | 71° |
| 2026-04-30 10:35 | 31.14600 | 121.81393 | 30 ft | 6 kts | 79° |
| 2026-04-30 10:35 | 31.14589 | 121.81434 | 30 ft | 5 kts | 134° |
| 2026-04-30 10:35 | 31.14552 | 121.81461 | 30 ft | 8 kts | 156° |
| 2026-04-30 10:36 | 31.14485 | 121.81490 | 30 ft | 12 kts | 161° |
| 2026-04-30 10:36 | 31.14388 | 121.81528 | 30 ft | 17 kts | 161° |
| 2026-04-30 10:36 | 31.14260 | 121.81576 | 30 ft | 19 kts | 163° |
| 2026-04-30 10:36 | 31.14133 | 121.81623 | 30 ft | 19 kts | 162° |
| 2026-04-30 10:37 | 31.14005 | 121.81673 | 30 ft | 19 kts | 161° |
| 2026-04-30 10:37 | 31.13877 | 121.81721 | 30 ft | 19 kts | 162° |
| 2026-04-30 10:37 | 31.13750 | 121.81767 | 30 ft | 18 kts | 162° |
| 2026-04-30 10:37 | 31.13624 | 121.81815 | 30 ft | 19 kts | 163° |
| 2026-04-30 10:38 | 31.13496 | 121.81863 | 30 ft | 18 kts | 161° |
| 2026-04-30 10:38 | 31.13371 | 121.81909 | 30 ft | 18 kts | 162° |
| 2026-04-30 10:38 | 31.13245 | 121.81957 | 30 ft | 18 kts | 162° |
| 2026-04-30 10:38 | 31.13117 | 121.82006 | 30 ft | 19 kts | 161° |
| 2026-04-30 10:39 | 31.12980 | 121.82058 | 30 ft | 20 kts | 161° |
| 2026-04-30 10:39 | 31.12842 | 121.82109 | 27 ft | 21 kts | 162° |
| 2026-04-30 10:39 | 31.12735 | 121.82149 | 27 ft | 11 kts | 161° |
| 2026-04-30 10:39 | 31.12693 | 121.82213 | 27 ft | 10 kts | 85° |
| 2026-04-30 10:40 | 31.12711 | 121.82256 | 27 ft | 3 kts | 70° |
| 2026-04-30 10:40 | 31.12718 | 121.82294 | 27 ft | 5 kts | 83° |
| 2026-04-30 10:40 | 31.12720 | 121.82336 | 28 ft | 3 kts | 77° |
| 2026-04-30 10:40 | 31.12738 | 121.82355 | 28 ft | 4 kts | 21° |
| 2026-04-30 10:41 | 31.12804 | 121.82340 | 30 ft | 27 kts | 333° |
| 2026-04-30 10:41 | 31.13212 | 121.82191 | 30 ft | 93 kts | 341° |
| 2026-04-30 10:41 | 31.14014 | 121.81889 | 30 ft | 148 kts | 343° |
| 2026-04-30 10:41 | 31.15125 | 121.81469 | 212 ft | 178 kts | 343° |
| 2026-04-30 10:42 | 31.16291 | 121.81053 | 881 ft | 174 kts | 349° |
| 2026-04-30 10:42 | 31.17447 | 121.81006 | 1718 ft | 163 kts | 6° |
| 2026-04-30 10:42 | 31.18520 | 121.81191 | 2406 ft | 155 kts | 6° |
| 2026-04-30 10:42 | 31.19593 | 121.81395 | 2865 ft | 156 kts | 6° |
| 2026-04-30 10:43 | 31.20698 | 121.81603 | 3197 ft | 166 kts | 6° |
| 2026-04-30 10:43 | 31.21889 | 121.81825 | 3477 ft | 180 kts | 6° |
| 2026-04-30 10:43 | 31.23177 | 121.82065 | 3759 ft | 196 kts | 6° |
| 2026-04-30 10:43 | 31.24595 | 121.82331 | 4060 ft | 212 kts | 6° |
| 2026-04-30 10:44 | 31.26093 | 121.82615 | 4375 ft | 229 kts | 6° |
| 2026-04-30 10:44 | 31.27732 | 121.82926 | 4697 ft | 247 kts | 6° |
| 2026-04-30 10:44 | 31.29479 | 121.83260 | 5233 ft | 256 kts | 6° |
| 2026-04-30 10:44 | 31.31220 | 121.83596 | 5944 ft | 257 kts | 6° |
| 2026-04-30 10:45 | 31.32987 | 121.83936 | 6659 ft | 259 kts | 6° |
| 2026-04-30 10:45 | 31.34767 | 121.84333 | 7357 ft | 264 kts | 14° |
| 2026-04-30 10:45 | 31.36362 | 121.85484 | 8017 ft | 280 kts | 41° |
| 2026-04-30 10:45 | 31.37386 | 121.87466 | 8627 ft | 297 kts | 69° |
| 2026-04-30 10:46 | 31.37823 | 121.89834 | 9261 ft | 304 kts | 75° |
| 2026-04-30 10:46 | 31.38189 | 121.92297 | 9859 ft | 309 kts | 79° |
| 2026-04-30 10:46 | 31.38044 | 121.94824 | 10396 ft | 322 kts | 105° |
| 2026-04-30 10:46 | 31.36963 | 121.97140 | 10713 ft | 339 kts | 134° |
| 2026-04-30 10:47 | 31.35020 | 121.98756 | 10998 ft | 347 kts | 162° |
| 2026-04-30 10:47 | 31.32660 | 121.99602 | 11285 ft | 360 kts | 169° |
| 2026-04-30 10:47 | 31.30215 | 122.00397 | 11585 ft | 375 kts | 168° |
| 2026-04-30 10:47 | 31.27678 | 122.01266 | 12059 ft | 385 kts | 168° |
| 2026-04-30 10:48 | 31.25074 | 122.02204 | 12682 ft | 389 kts | 167° |
| 2026-04-30 10:48 | 31.22480 | 122.03162 | 13324 ft | 393 kts | 167° |
| 2026-04-30 10:48 | 31.19879 | 122.04132 | 13947 ft | 397 kts | 167° |
| 2026-04-30 10:48 | 31.17240 | 122.05121 | 14563 ft | 401 kts | 168° |
| 2026-04-30 10:49 | 31.14652 | 122.06356 | 15188 ft | 412 kts | 156° |
| 2026-04-30 10:49 | 31.12277 | 122.08336 | 15828 ft | 424 kts | 141° |
| 2026-04-30 10:49 | 31.10257 | 122.10879 | 16419 ft | 431 kts | 134° |
| 2026-04-30 10:49 | 31.08345 | 122.13562 | 16944 ft | 437 kts | 133° |
| 2026-04-30 10:50 | 31.06401 | 122.16302 | 17458 ft | 443 kts | 135° |
| 2026-04-30 10:50 | 31.04372 | 122.19094 | 18023 ft | 447 kts | 136° |
| 2026-04-30 10:50 | 31.02346 | 122.21834 | 18562 ft | 452 kts | 135° |
| 2026-04-30 10:50 | 31.00613 | 122.24955 | 19072 ft | 467 kts | 116° |
| 2026-04-30 10:51 | 30.99782 | 122.28615 | 19636 ft | 475 kts | 96° |
| 2026-04-30 10:51 | 30.99745 | 122.32455 | 20225 ft | 477 kts | 88° |
| 2026-04-30 10:51 | 30.99867 | 122.36314 | 20685 ft | 482 kts | 88° |
| 2026-04-30 10:51 | 30.99964 | 122.40233 | 21111 ft | 488 kts | 89° |
| 2026-04-30 10:52 | 31.00007 | 122.44196 | 21552 ft | 493 kts | 90° |
| 2026-04-30 10:52 | 31.00016 | 122.48189 | 21987 ft | 498 kts | 90° |
| 2026-04-30 10:52 | 31.00014 | 122.52284 | 22431 ft | 503 kts | 90° |
| 2026-04-30 10:52 | 31.00016 | 122.56309 | 22825 ft | 507 kts | 90° |
| 2026-04-30 10:53 | 31.00014 | 122.60477 | 23233 ft | 511 kts | 91° |
| 2026-04-30 10:53 | 31.00023 | 122.64613 | 23676 ft | 515 kts | 92° |
| 2026-04-30 10:53 | 31.00024 | 122.68767 | 24057 ft | 519 kts | 92° |
| 2026-04-30 10:53 | 31.00020 | 122.72980 | 24488 ft | 522 kts | 92° |
| 2026-04-30 10:54 | 31.00014 | 122.77247 | 24859 ft | 525 kts | 92° |
| 2026-04-30 10:54 | 31.00015 | 122.81471 | 25236 ft | 528 kts | 92° |
| 2026-04-30 10:54 | 31.00010 | 122.85767 | 25596 ft | 532 kts | 92° |
| 2026-04-30 10:54 | 31.00010 | 122.90048 | 25969 ft | 535 kts | 93° |
| 2026-04-30 10:55 | 31.00005 | 122.94399 | 26325 ft | 537 kts | 94° |
| 2026-04-30 10:55 | 30.99777 | 122.98748 | 26616 ft | 537 kts | 102° |
| 2026-04-30 10:55 | 30.99036 | 123.02958 | 26946 ft | 533 kts | 113° |
| 2026-04-30 10:55 | 30.97811 | 123.07018 | 27300 ft | 529 kts | 120° |
| 2026-04-30 10:56 | 30.96444 | 123.10941 | 27684 ft | 528 kts | 121° |
| 2026-04-30 10:56 | 30.95021 | 123.14909 | 28040 ft | 530 kts | 121° |
| 2026-04-30 10:56 | 30.93613 | 123.18873 | 28396 ft | 533 kts | 121° |
| 2026-04-30 10:56 | 30.92205 | 123.22898 | 28639 ft | 537 kts | 121° |
| 2026-04-30 10:57 | 30.90811 | 123.26938 | 28947 ft | 540 kts | 121° |
| 2026-04-30 10:57 | 30.89420 | 123.31010 | 29240 ft | 543 kts | 120° |
| 2026-04-30 10:57 | 30.88032 | 123.35085 | 29571 ft | 545 kts | 120° |
| 2026-04-30 10:57 | 30.86628 | 123.39189 | 29872 ft | 548 kts | 121° |
| 2026-04-30 10:58 | 30.85221 | 123.43313 | 30219 ft | 550 kts | 121° |
| 2026-04-30 10:58 | 30.83818 | 123.47434 | 30642 ft | 548 kts | 121° |
| 2026-04-30 10:58 | 30.82421 | 123.51513 | 31050 ft | 546 kts | 120° |
| 2026-04-30 10:58 | 30.81012 | 123.55611 | 31309 ft | 549 kts | 121° |
| 2026-04-30 10:59 | 30.79401 | 123.59587 | 31574 ft | 536 kts | 131° |
| 2026-04-30 10:59 | 30.77224 | 123.62970 | 31804 ft | 516 kts | 145° |
| 2026-04-30 10:59 | 30.74578 | 123.65678 | 32018 ft | 494 kts | 158° |
| 2026-04-30 10:59 | 30.71694 | 123.67622 | 32064 ft | 472 kts | 169° |
| 2026-04-30 11:00 | 30.68629 | 123.68868 | 32072 ft | 454 kts | 180° |
| 2026-04-30 11:00 | 30.65573 | 123.69437 | 32061 ft | 435 kts | 189° |
| 2026-04-30 11:00 | 30.59568 | 123.69261 | 32056 ft | 440 kts | 193° |
| 2026-04-30 11:01 | 30.53413 | 123.69250 | 32071 ft | 442 kts | 192° |
| 2026-04-30 11:01 | 30.47265 | 123.69273 | 32060 ft | 445 kts | 193° |
| 2026-04-30 11:02 | 30.41046 | 123.69295 | 32037 ft | 442 kts | 192° |
| 2026-04-30 11:02 | 30.34899 | 123.69312 | 32024 ft | 442 kts | 193° |
| 2026-04-30 11:03 | 30.28776 | 123.69325 | 32056 ft | 443 kts | 193° |
| 2026-04-30 11:04 | 30.19550 | 123.69340 | 32057 ft | 442 kts | 193° |
| 2026-04-30 11:04 | 30.13413 | 123.69334 | 32077 ft | 443 kts | 193° |
| 2026-04-30 11:05 | 30.07249 | 123.69339 | 32058 ft | 440 kts | 193° |
| 2026-04-30 11:05 | 30.01136 | 123.69345 | 32054 ft | 440 kts | 193° |
| 2026-04-30 11:06 | 29.95028 | 123.69347 | 32072 ft | 438 kts | 194° |
| 2026-04-30 11:06 | 29.88876 | 123.69344 | 32049 ft | 441 kts | 193° |
| 2026-04-30 11:07 | 29.82713 | 123.69344 | 32066 ft | 445 kts | 193° |
| 2026-04-30 11:07 | 29.76509 | 123.69347 | 32072 ft | 444 kts | 193° |
| 2026-04-30 11:08 | 29.70310 | 123.69352 | 32064 ft | 447 kts | 193° |
| 2026-04-30 11:08 | 29.64094 | 123.69350 | 32061 ft | 448 kts | 193° |
| 2026-04-30 11:09 | 29.57865 | 123.69353 | 32052 ft | 448 kts | 193° |
| 2026-04-30 11:09 | 29.51614 | 123.69356 | 32071 ft | 446 kts | 193° |
| 2026-04-30 11:10 | 29.45447 | 123.69362 | 32058 ft | 446 kts | 192° |
| 2026-04-30 11:10 | 29.39182 | 123.69353 | 32054 ft | 449 kts | 192° |
| 2026-04-30 11:11 | 29.32906 | 123.69357 | 32056 ft | 451 kts | 192° |
| 2026-04-30 11:11 | 29.26647 | 123.69362 | 32057 ft | 449 kts | 192° |
| 2026-04-30 11:12 | 29.20366 | 123.69364 | 32058 ft | 450 kts | 192° |
| 2026-04-30 11:12 | 29.14078 | 123.69363 | 32063 ft | 452 kts | 192° |
| 2026-04-30 11:13 | 29.07751 | 123.69367 | 32064 ft | 454 kts | 192° |
| 2026-04-30 11:13 | 29.01430 | 123.69372 | 32067 ft | 456 kts | 192° |
| 2026-04-30 11:14 | 28.95082 | 123.69382 | 32059 ft | 453 kts | 192° |
| 2026-04-30 11:14 | 28.88737 | 123.69382 | 32064 ft | 457 kts | 191° |
| 2026-04-30 11:15 | 28.82354 | 123.69390 | 32066 ft | 456 kts | 192° |
| 2026-04-30 11:15 | 28.76088 | 123.69110 | 32068 ft | 449 kts | 196° |
| 2026-04-30 11:16 | 28.69941 | 123.68142 | 32065 ft | 442 kts | 201° |
| 2026-04-30 11:16 | 28.63993 | 123.66533 | 32068 ft | 434 kts | 206° |
| 2026-04-30 11:17 | 28.58283 | 123.64319 | 32068 ft | 432 kts | 210° |
| 2026-04-30 11:17 | 28.52628 | 123.61878 | 32067 ft | 432 kts | 210° |
| 2026-04-30 11:18 | 28.47011 | 123.59451 | 32067 ft | 435 kts | 210° |
| 2026-04-30 11:18 | 28.38498 | 123.55777 | 32066 ft | 436 kts | 210° |
| 2026-04-30 11:19 | 28.32869 | 123.53348 | 32070 ft | 432 kts | 210° |
| 2026-04-30 11:19 | 28.27228 | 123.50913 | 32070 ft | 435 kts | 210° |
| 2026-04-30 11:20 | 28.21567 | 123.48466 | 32072 ft | 435 kts | 209° |
| 2026-04-30 11:20 | 28.15900 | 123.46029 | 32076 ft | 438 kts | 209° |
| 2026-04-30 11:21 | 28.10156 | 123.43557 | 32068 ft | 441 kts | 210° |
| 2026-04-30 11:21 | 28.04431 | 123.41103 | 32075 ft | 439 kts | 209° |
| 2026-04-30 11:22 | 27.98704 | 123.38642 | 32075 ft | 442 kts | 209° |
| 2026-04-30 11:22 | 27.92922 | 123.36166 | 32077 ft | 443 kts | 210° |
| 2026-04-30 11:23 | 27.87167 | 123.33699 | 32079 ft | 443 kts | 208° |
| 2026-04-30 11:24 | 27.78493 | 123.29984 | 32064 ft | 446 kts | 208° |
| 2026-04-30 11:24 | 27.72667 | 123.27496 | 32066 ft | 447 kts | 208° |
| 2026-04-30 11:25 | 27.63957 | 123.23786 | 32066 ft | 446 kts | 208° |
| 2026-04-30 11:26 | 27.52348 | 123.18843 | 32072 ft | 446 kts | 208° |
| 2026-04-30 11:26 | 27.46512 | 123.16361 | 32071 ft | 448 kts | 208° |
| 2026-04-30 11:27 | 27.40651 | 123.13872 | 32068 ft | 450 kts | 208° |
| 2026-04-30 11:27 | 27.34785 | 123.11388 | 32071 ft | 450 kts | 208° |
| 2026-04-30 11:28 | 27.25967 | 123.07658 | 32061 ft | 451 kts | 208° |
| 2026-04-30 11:29 | 27.20122 | 123.05194 | 32065 ft | 451 kts | 208° |
| 2026-04-30 11:29 | 27.11397 | 123.01288 | 32070 ft | 447 kts | 212° |
| 2026-04-30 11:30 | 27.03231 | 122.96247 | 32071 ft | 442 kts | 219° |
| 2026-04-30 11:31 | 26.98189 | 122.92326 | 32064 ft | 443 kts | 220° |
| 2026-04-30 11:31 | 26.93154 | 122.88344 | 32062 ft | 441 kts | 221° |
| 2026-04-30 11:32 | 26.88150 | 122.84378 | 32062 ft | 441 kts | 221° |
| 2026-04-30 11:32 | 26.83128 | 122.80393 | 32063 ft | 443 kts | 221° |
| 2026-04-30 11:33 | 26.75577 | 122.74413 | 32054 ft | 446 kts | 221° |
| 2026-04-30 11:33 | 26.70515 | 122.70409 | 32067 ft | 446 kts | 220° |
| 2026-04-30 11:34 | 26.65435 | 122.66398 | 32056 ft | 447 kts | 220° |
| 2026-04-30 11:34 | 26.60341 | 122.62374 | 32067 ft | 448 kts | 220° |
| 2026-04-30 11:35 | 26.55277 | 122.58384 | 32065 ft | 447 kts | 221° |
| 2026-04-30 11:35 | 26.50181 | 122.54365 | 32064 ft | 449 kts | 220° |
| 2026-04-30 11:36 | 26.45062 | 122.50340 | 32064 ft | 447 kts | 221° |
| 2026-04-30 11:36 | 26.39934 | 122.46305 | 32060 ft | 451 kts | 220° |
| 2026-04-30 11:37 | 26.34809 | 122.42286 | 32071 ft | 450 kts | 220° |
| 2026-04-30 11:37 | 26.29693 | 122.38272 | 32062 ft | 450 kts | 220° |
| 2026-04-30 11:38 | 26.24588 | 122.34277 | 31904 ft | 444 kts | 220° |
| 2026-04-30 11:38 | 26.22104 | 122.32336 | 31631 ft | 436 kts | 220° |
| 2026-04-30 11:38 | 26.19620 | 122.30393 | 31264 ft | 432 kts | 220° |
| 2026-04-30 11:39 | 26.17178 | 122.28482 | 30777 ft | 430 kts | 220° |
| 2026-04-30 11:39 | 26.14712 | 122.26553 | 30226 ft | 429 kts | 220° |
| 2026-04-30 11:39 | 26.12299 | 122.24679 | 29694 ft | 427 kts | 220° |
| 2026-04-30 11:39 | 26.09846 | 122.22797 | 29321 ft | 421 kts | 219° |
| 2026-04-30 11:40 | 26.07437 | 122.20959 | 28985 ft | 416 kts | 220° |
| 2026-04-30 11:40 | 26.05087 | 122.19165 | 28618 ft | 411 kts | 220° |
| 2026-04-30 11:40 | 26.02726 | 122.17356 | 28183 ft | 409 kts | 220° |
| 2026-04-30 11:40 | 26.00395 | 122.15574 | 27749 ft | 406 kts | 220° |
| 2026-04-30 11:41 | 25.98074 | 122.13799 | 27322 ft | 404 kts | 220° |
| 2026-04-30 11:41 | 25.95786 | 122.12049 | 26911 ft | 401 kts | 220° |
| 2026-04-30 11:41 | 25.93471 | 122.10281 | 26539 ft | 398 kts | 220° |
| 2026-04-30 11:41 | 25.91220 | 122.08565 | 26176 ft | 394 kts | 220° |
| 2026-04-30 11:42 | 25.88971 | 122.06848 | 25828 ft | 390 kts | 220° |
| 2026-04-30 11:42 | 25.86713 | 122.05125 | 25441 ft | 388 kts | 220° |
| 2026-04-30 11:42 | 25.84502 | 122.03436 | 25050 ft | 385 kts | 220° |
| 2026-04-30 11:42 | 25.82315 | 122.01769 | 24641 ft | 384 kts | 220° |
| 2026-04-30 11:43 | 25.80104 | 122.00082 | 24243 ft | 382 kts | 220° |
| 2026-04-30 11:43 | 25.77919 | 121.98419 | 23850 ft | 380 kts | 220° |
| 2026-04-30 11:43 | 25.75753 | 121.96771 | 23480 ft | 378 kts | 220° |
| 2026-04-30 11:43 | 25.73576 | 121.95117 | 23152 ft | 375 kts | 220° |
| 2026-04-30 11:44 | 25.71447 | 121.93491 | 22784 ft | 373 kts | 221° |
| 2026-04-30 11:44 | 25.69329 | 121.91859 | 22395 ft | 372 kts | 221° |
| 2026-04-30 11:44 | 25.67218 | 121.90221 | 22049 ft | 369 kts | 223° |
| 2026-04-30 11:44 | 25.65267 | 121.88372 | 21666 ft | 362 kts | 230° |
| 2026-04-30 11:45 | 25.63624 | 121.86280 | 21299 ft | 357 kts | 238° |
| 2026-04-30 11:45 | 25.62292 | 121.84026 | 20907 ft | 353 kts | 243° |
| 2026-04-30 11:45 | 25.61063 | 121.81654 | 20514 ft | 352 kts | 244° |
| 2026-04-30 11:45 | 25.59856 | 121.79288 | 20130 ft | 352 kts | 244° |
| 2026-04-30 11:46 | 25.58655 | 121.76936 | 19761 ft | 350 kts | 244° |
| 2026-04-30 11:46 | 25.57451 | 121.74583 | 19396 ft | 349 kts | 244° |
| 2026-04-30 11:46 | 25.56265 | 121.72271 | 19052 ft | 347 kts | 244° |
| 2026-04-30 11:46 | 25.55057 | 121.69916 | 18682 ft | 345 kts | 244° |
| 2026-04-30 11:47 | 25.53875 | 121.67613 | 18326 ft | 344 kts | 244° |
| 2026-04-30 11:47 | 25.52689 | 121.65308 | 17951 ft | 343 kts | 244° |
| 2026-04-30 11:47 | 25.51510 | 121.63012 | 17582 ft | 342 kts | 243° |
| 2026-04-30 11:47 | 25.50341 | 121.60741 | 17234 ft | 340 kts | 243° |
| 2026-04-30 11:48 | 25.49090 | 121.58519 | 16890 ft | 340 kts | 239° |
| 2026-04-30 11:48 | 25.47715 | 121.56401 | 16528 ft | 340 kts | 236° |
| 2026-04-30 11:48 | 25.46224 | 121.54389 | 16167 ft | 340 kts | 233° |
| 2026-04-30 11:48 | 25.44678 | 121.52399 | 15815 ft | 339 kts | 233° |
| 2026-04-30 11:49 | 25.43146 | 121.50433 | 15460 ft | 337 kts | 233° |
| 2026-04-30 11:49 | 25.41625 | 121.48483 | 15107 ft | 336 kts | 233° |
| 2026-04-30 11:49 | 25.40094 | 121.46519 | 14758 ft | 334 kts | 232° |
| 2026-04-30 11:49 | 25.38593 | 121.44600 | 14425 ft | 332 kts | 232° |
| 2026-04-30 11:50 | 25.37082 | 121.42670 | 14082 ft | 331 kts | 232° |
| 2026-04-30 11:50 | 25.35580 | 121.40750 | 13747 ft | 329 kts | 232° |
| 2026-04-30 11:50 | 25.34090 | 121.38847 | 13398 ft | 327 kts | 232° |
| 2026-04-30 11:50 | 25.32599 | 121.36945 | 13068 ft | 325 kts | 232° |
| 2026-04-30 11:51 | 25.31131 | 121.35072 | 12725 ft | 324 kts | 232° |
| 2026-04-30 11:51 | 25.29648 | 121.33178 | 12373 ft | 323 kts | 231° |
| 2026-04-30 11:51 | 25.28178 | 121.31305 | 12027 ft | 322 kts | 231° |
| 2026-04-30 11:51 | 25.26717 | 121.29443 | 11678 ft | 321 kts | 231° |
| 2026-04-30 11:52 | 25.25263 | 121.27592 | 11325 ft | 320 kts | 231° |
| 2026-04-30 11:52 | 25.23796 | 121.25725 | 10955 ft | 320 kts | 231° |
| 2026-04-30 11:52 | 25.22341 | 121.23870 | 10603 ft | 319 kts | 230° |
| 2026-04-30 11:52 | 25.20901 | 121.22038 | 10296 ft | 316 kts | 230° |
| 2026-04-30 11:53 | 25.19487 | 121.20240 | 10252 ft | 303 kts | 230° |
| 2026-04-30 11:53 | 25.18133 | 121.18524 | 10219 ft | 292 kts | 230° |
| 2026-04-30 11:53 | 25.16810 | 121.16841 | 10151 ft | 282 kts | 230° |
| 2026-04-30 11:53 | 25.15544 | 121.15231 | 10125 ft | 271 kts | 230° |
| 2026-04-30 11:54 | 25.14325 | 121.13687 | 10096 ft | 261 kts | 230° |
| 2026-04-30 11:54 | 25.13151 | 121.12195 | 9859 ft | 259 kts | 230° |
| 2026-04-30 11:54 | 25.11965 | 121.10687 | 9573 ft | 259 kts | 230° |
| 2026-04-30 11:54 | 25.10788 | 121.09191 | 9304 ft | 258 kts | 230° |
| 2026-04-30 11:55 | 25.09610 | 121.07694 | 9039 ft | 257 kts | 230° |
| 2026-04-30 11:55 | 25.08444 | 121.06213 | 8777 ft | 256 kts | 230° |
| 2026-04-30 11:55 | 25.07267 | 121.04720 | 8515 ft | 256 kts | 230° |
| 2026-04-30 11:55 | 25.06110 | 121.03253 | 8258 ft | 255 kts | 230° |
| 2026-04-30 11:56 | 25.04954 | 121.01784 | 8001 ft | 254 kts | 230° |
| 2026-04-30 11:56 | 25.03795 | 121.00315 | 7745 ft | 253 kts | 230° |
| 2026-04-30 11:56 | 25.02645 | 120.98855 | 7483 ft | 252 kts | 230° |
| 2026-04-30 11:56 | 25.01487 | 120.97388 | 7233 ft | 251 kts | 230° |
| 2026-04-30 11:57 | 25.00352 | 120.95949 | 6995 ft | 250 kts | 230° |
| 2026-04-30 11:57 | 24.99216 | 120.94508 | 6749 ft | 249 kts | 230° |
| 2026-04-30 11:57 | 24.98075 | 120.93064 | 6499 ft | 248 kts | 230° |
| 2026-04-30 11:57 | 24.96944 | 120.91631 | 6249 ft | 248 kts | 230° |
| 2026-04-30 11:58 | 24.95810 | 120.90196 | 6007 ft | 248 kts | 230° |
| 2026-04-30 11:58 | 24.94674 | 120.88760 | 5725 ft | 249 kts | 230° |
| 2026-04-30 11:58 | 24.93420 | 120.87406 | 5446 ft | 251 kts | 212° |
| 2026-04-30 11:58 | 24.91775 | 120.86819 | 5204 ft | 253 kts | 182° |
| 2026-04-30 11:59 | 24.90059 | 120.87148 | 4957 ft | 254 kts | 155° |
| 2026-04-30 11:59 | 24.88652 | 120.88339 | 4706 ft | 254 kts | 126° |
| 2026-04-30 11:59 | 24.87925 | 120.90079 | 4487 ft | 252 kts | 99° |
| 2026-04-30 11:59 | 24.88003 | 120.91972 | 4290 ft | 250 kts | 71° |
| 2026-04-30 12:00 | 24.88858 | 120.93617 | 4063 ft | 247 kts | 45° |
| 2026-04-30 12:00 | 24.90082 | 120.94899 | 3993 ft | 240 kts | 47° |
| 2026-04-30 12:00 | 24.90984 | 120.96381 | 3985 ft | 231 kts | 69° |
| 2026-04-30 12:00 | 24.91222 | 120.98142 | 4004 ft | 233 kts | 90° |
| 2026-04-30 12:01 | 24.91195 | 120.99917 | 3999 ft | 233 kts | 82° |
| 2026-04-30 12:01 | 24.91678 | 121.01622 | 3969 ft | 232 kts | 59° |
| 2026-04-30 12:01 | 24.92607 | 121.03087 | 3582 ft | 240 kts | 49° |
| 2026-04-30 12:01 | 24.93739 | 121.04469 | 3192 ft | 247 kts | 47° |
| 2026-04-30 12:02 | 24.94911 | 121.05868 | 2832 ft | 251 kts | 48° |
| 2026-04-30 12:02 | 24.96086 | 121.07318 | 2509 ft | 251 kts | 49° |
| 2026-04-30 12:02 | 24.97176 | 121.08700 | 2453 ft | 225 kts | 49° |
| 2026-04-30 12:02 | 24.98183 | 121.09988 | 2514 ft | 214 kts | 49° |
| 2026-04-30 12:03 | 24.99116 | 121.11185 | 2468 ft | 197 kts | 49° |
| 2026-04-30 12:03 | 25.00849 | 121.13400 | 1997 ft | 184 kts | 49° |
| 2026-04-30 12:03 | 25.01653 | 121.14427 | 1774 ft | 171 kts | 48° |
| 2026-04-30 12:04 | 25.02415 | 121.15398 | 1554 ft | 161 kts | 47° |
| 2026-04-30 12:04 | 25.03129 | 121.16306 | 1357 ft | 157 kts | 48° |
| 2026-04-30 12:04 | 25.03854 | 121.17229 | 1156 ft | 159 kts | 48° |
| 2026-04-30 12:04 | 25.04569 | 121.18138 | 962 ft | 155 kts | 48° |
| 2026-04-30 12:05 | 25.05258 | 121.19015 | 747 ft | 147 kts | 48° |
| 2026-04-30 12:05 | 25.05920 | 121.19858 | 548 ft | 141 kts | 48° |
| 2026-04-30 12:05 | 25.06561 | 121.20673 | 369 ft | 140 kts | 48° |
| 2026-04-30 12:05 | 25.07191 | 121.21481 | 192 ft | 139 kts | 48° |
| 2026-04-30 12:06 | 25.07823 | 121.22282 | 123 ft | 127 kts | 47° |
| 2026-04-30 12:06 | 25.08290 | 121.22875 | 123 ft | 76 kts | 48° |
| 2026-04-30 12:06 | 25.08434 | 121.23167 | 123 ft | 24 kts | 79° |
| 2026-04-30 12:06 | 25.08458 | 121.23300 | 123 ft | 12 kts | 79° |
| 2026-04-30 12:07 | 25.08460 | 121.23315 | 123 ft | 1 kts | 79° |
| 2026-04-30 12:07 | 25.08464 | 121.23335 | 123 ft | 3 kts | 79° |
| 2026-04-30 12:07 | 25.08470 | 121.23370 | 123 ft | 5 kts | 78° |
| 2026-04-30 12:07 | 25.08476 | 121.23411 | 123 ft | 3 kts | 96° |
| 2026-04-30 12:08 | 25.08471 | 121.23449 | 123 ft | 6 kts | 97° |
| 2026-04-30 12:08 | 25.08458 | 121.23486 | 123 ft | 3 kts | 126° |
| 2026-04-30 12:08 | 25.08435 | 121.23506 | 123 ft | 5 kts | 149° |
| 2026-04-30 12:08 | 25.08408 | 121.23524 | 123 ft | 3 kts | 152° |
| 2026-04-30 12:09 | 25.08381 | 121.23539 | 123 ft | 5 kts | 152° |
| 2026-04-30 12:09 | 25.08342 | 121.23560 | 123 ft | 7 kts | 155° |
| 2026-04-30 12:09 | 25.08304 | 121.23585 | 123 ft | 3 kts | 134° |
| 2026-04-30 12:09 | 25.08300 | 121.23589 | 123 ft | 0 kts | 137° |